Terminal Aerodrome Forecast
Issued by NWS

Home | Current Version | Previous Version | Text Only | Print | Product List | Glossary On
Versions: 1 2 3 4 5 6 7 8 9 10 11 12 13 14 15 16 17 18
000
FTUS42 KTAE 271917 AAA
TAFECP
TAF AMD
KECP 271917Z 2719/2818 36004KT P6SM RA VCTS BKN020 BKN050CB OVC100
     FM280300 08007KT 4SM TSRA BKN025CB
     FM280900 09007KT P6SM VCTS BKN025CB=

USA.gov is the U.S. government's official web portal to all federal, state and local government web resources and services.